Gates Mills, Ohio
Current Conditions -  °F | °C
As of 10:45 PM on Tuesday 25 Nov 2014 (Local Time) from KCGF Reporting Station
Overcast Overcast  
Wind Chill: 26°   Ceiling: 1400
Heat Index: 34°   Visibility: 7mi
Dew Point: 27°   Wind: 9mph
Humidity: 75%   Direction: 240°WSW
Pressure: 30.22"   Gusts: NA
Location:  41.52°N, 81.4°W
Report Text: KCGF 260345Z 24008KT 7SM BKN014 OVC024 01/M03 A3022
Loading
Personal Weather Stations






























Interactive Weather Map New forecast layout! Learn more

10-Day Weather Forecast

Advertisements
Track Severe Weather on mobile